Time;durP1;ratioP1;P1;durP2;ratioP2;P2;SDS_P1;SDS_P2;PMS_P1;PMS_P2;Temp;Humidity;BMP_temperature;BMP_pressure;BME280_temperature;BME280_humidity;BME280_pressure;Samples;Min_cycle;Max_cycle;Signal;HPM_P1;HPM_P2
2023/06/20 00:02:11;;;;;;;10.75;8.13;;;;;;;22.32;97.11;-18626.56;4949616;28;20078;-77
2023/06/20 00:04:36;;;;;;;9.68;7.45;;;;;;;22.28;97.28;-18625.47;4966236;28;20114;-77
2023/06/20 00:07:01;;;;;;;11.45;8.30;;;;;;;22.34;96.87;-18626.97;4965892;28;20074;-77
2023/06/20 00:09:27;;;;;;;11.73;8.40;;;;;;;22.27;97.13;-18625.34;4963466;28;20050;-77
2023/06/20 00:11:52;;;;;;;9.82;7.60;;;;;;;22.36;97.46;-18627.53;4969174;28;20633;-77
2023/06/20 00:14:17;;;;;;;11.85;8.27;;;;;;;22.37;97.08;-18627.78;4948416;28;20047;-79
2023/06/20 00:16:43;;;;;;;13.35;8.20;;;;;;;22.49;96.78;-18631.19;4964136;28;20066;-78
2023/06/20 00:19:08;;;;;;;13.32;9.35;;;;;;;22.48;96.26;-18630.91;4956784;28;20047;-77
2023/06/20 00:21:34;;;;;;;12.43;8.10;;;;;;;22.34;96.50;-18626.97;4948049;28;20081;-77
2023/06/20 00:23:59;;;;;;;13.48;8.82;;;;;;;22.27;97.97;-18625.22;4955092;28;20043;-78
2023/06/20 00:26:45;;;;;;;12.77;8.45;;;;;;;22.30;98.00;-18626.16;4969521;28;21332;-79
2023/06/20 00:29:11;;;;;;;13.02;8.90;;;;;;;22.35;97.89;-18627.25;4969844;28;20143;-78
2023/06/20 00:31:36;;;;;;;12.10;8.43;;;;;;;22.32;98.01;-18626.56;4968080;28;20077;-77
2023/06/20 00:34:02;;;;;;;10.65;8.23;;;;;;;22.30;98.41;-18626.03;4970087;28;20040;-79
2023/06/20 00:36:27;;;;;;;14.35;9.23;;;;;;;22.25;99.10;-18624.81;4972091;28;20054;-78
2023/06/20 00:38:54;;;;;;;15.32;9.63;;;;;;;22.20;100.00;-18623.44;4972921;28;20047;-78
2023/06/20 00:41:20;;;;;;;13.20;9.45;;;;;;;22.34;98.44;-18627.09;4989089;28;20182;-79
2023/06/20 00:43:47;;;;;;;14.05;9.60;;;;;;;22.23;99.75;-18624.25;4972382;28;20046;-79
2023/06/20 00:46:22;;;;;;;12.88;9.15;;;;;;;22.25;99.67;-18624.66;4973036;28;20043;-78
2023/06/20 00:48:50;;;;;;;13.65;9.02;;;;;;;22.18;100.00;-18622.75;4971756;28;20050;-78
2023/06/20 00:51:16;;;;;;;11.25;9.35;;;;;;;22.12;100.00;-18621.25;4974353;28;20050;-80
2023/06/20 00:53:43;;;;;;;12.30;10.10;;;;;;;22.11;100.00;-18620.84;4972686;28;20041;-79
2023/06/20 00:56:11;;;;;;;11.57;8.98;;;;;;;22.15;100.00;-18622.06;4973109;28;20106;-79
2023/06/20 00:58:37;;;;;;;13.52;9.68;;;;;;;22.13;100.00;-18621.53;4968949;28;20043;-79
2023/06/20 01:01:03;;;;;;;14.35;10.50;;;;;;;22.07;100.00;-18619.91;4988281;28;20093;-79
2023/06/20 01:03:28;;;;;;;13.60;10.20;;;;;;;22.05;100.00;-18619.38;4970234;28;20046;-79
2023/06/20 01:06:09;;;;;;;12.85;10.27;;;;;;;22.14;100.00;-18621.66;4969392;28;20059;-79
2023/06/20 01:09:08;;;;;;;13.48;10.60;;;;;;;22.09;100.00;-18620.44;4967179;28;20130;-79
2023/06/20 01:11:42;;;;;;;;;;;;;;;22.13;100.00;-18621.41;4968362;28;20051;-79
2023/06/20 01:14:24;;;;;;;13.77;10.00;;;;;;;22.07;100.00;-18619.91;4973874;28;19918;-78
2023/06/20 01:16:59;;;;;;;12.82;10.48;;;;;;;21.95;100.00;-18616.66;4971103;28;20194;-79
2023/06/20 01:19:31;;;;;;;14.65;10.60;;;;;;;21.74;100.00;-18611.22;4985719;28;20051;-79
2023/06/20 01:22:02;;;;;;;17.00;11.38;;;;;;;21.70;100.00;-18610.00;4969369;28;20406;-80
2023/06/20 01:24:43;;;;;;;13.27;10.52;;;;;;;21.80;100.00;-18612.84;4978176;28;20058;-79
2023/06/20 01:27:18;;;;;;;13.52;10.40;;;;;;;21.72;100.00;-18610.53;4998214;28;20051;-79
2023/06/20 01:29:56;;;;;;;14.00;9.73;;;;;;;21.61;100.00;-18607.81;4973253;28;20045;-80
2023/06/20 01:32:23;;;;;;;13.27;10.30;;;;;;;21.66;100.00;-18608.91;4974829;28;20129;-79
2023/06/20 01:34:56;;;;;;;14.57;10.52;;;;;;;21.62;100.00;-18608.09;4975269;28;20073;-79
2023/06/20 01:37:23;;;;;;;15.73;11.32;;;;;;;21.58;100.00;-18606.88;4980166;28;20043;-79
2023/06/20 01:39:55;;;;;;;13.77;10.60;;;;;;;21.62;100.00;-18607.94;4974460;28;20047;-79
2023/06/20 01:42:23;;;;;;;14.10;11.43;;;;;;;21.66;100.00;-18609.03;4972552;28;20051;-80
2023/06/20 01:44:52;;;;;;;14.53;10.63;;;;;;;21.68;100.00;-18609.56;4973422;28;20145;-80
2023/06/20 01:47:19;;;;;;;14.75;10.93;;;;;;;21.60;100.00;-18607.41;4991629;28;20058;-79
2023/06/20 01:49:49;;;;;;;14.80;11.23;;;;;;;21.52;100.00;-18605.22;4992076;28;20058;-79
2023/06/20 01:52:16;;;;;;;14.45;11.18;;;;;;;21.55;100.00;-18606.03;4978980;28;20051;-79
2023/06/20 01:54:46;;;;;;;16.52;11.13;;;;;;;21.54;100.00;-18605.91;4975471;28;20471;-80
2023/06/20 01:57:13;;;;;;;14.95;10.93;;;;;;;21.56;100.00;-18606.31;4972302;28;20069;-80
2023/06/20 01:59:41;;;;;;;14.65;10.80;;;;;;;21.52;100.00;-18605.22;4974513;28;20082;-80
2023/06/20 02:02:07;;;;;;;14.88;11.57;;;;;;;21.58;100.00;-18606.88;4975106;28;20418;-79
2023/06/20 02:04:35;;;;;;;13.57;11.02;;;;;;;21.61;100.00;-18607.81;4969884;28;20494;-79
2023/06/20 02:07:03;;;;;;;14.43;11.32;;;;;;;21.50;100.00;-18604.81;4972710;28;20133;-80
2023/06/20 02:09:30;;;;;;;14.07;11.73;;;;;;;21.54;100.00;-18605.91;4968942;28;20043;-79
2023/06/20 02:11:56;;;;;;;16.25;11.32;;;;;;;21.57;100.00;-18606.59;4991830;28;20561;-80
2023/06/20 02:14:24;;;;;;;16.90;12.68;;;;;;;21.62;100.00;-18607.94;4979837;28;20047;-80
2023/06/20 02:16:50;;;;;;;15.90;11.98;;;;;;;21.43;100.00;-18602.91;4975008;28;20057;-79
2023/06/20 02:19:16;;;;;;;16.08;12.48;;;;;;;21.31;100.00;-18599.66;4973866;28;20050;-79
2023/06/20 02:21:44;;;;;;;15.40;11.43;;;;;;;21.27;100.00;-18598.69;4976992;28;20650;-79
2023/06/20 02:24:15;;;;;;;15.80;12.18;;;;;;;21.36;100.00;-18601.16;4973943;28;20046;-80
2023/06/20 02:26:43;;;;;;;14.45;11.57;;;;;;;21.48;100.00;-18604.16;4991115;28;20050;-79
2023/06/20 02:29:11;;;;;;;15.90;11.48;;;;;;;21.69;100.00;-18609.84;4989276;28;20069;-79
2023/06/20 02:31:40;;;;;;;15.90;11.32;;;;;;;21.54;100.00;-18605.91;4977251;28;20059;-80
2023/06/20 02:34:09;;;;;;;15.43;11.55;;;;;;;21.67;100.00;-18609.19;4978839;28;20054;-79
2023/06/20 02:36:37;;;;;;;15.25;11.45;;;;;;;21.59;100.00;-18607.13;4994241;28;20049;-79
2023/06/20 02:39:04;;;;;;;13.40;11.75;;;;;;;21.58;100.00;-18606.88;4975911;28;20093;-79
2023/06/20 02:41:30;;;;;;;13.93;11.60;;;;;;;21.70;100.00;-18610.13;4972868;28;20445;-78
2023/06/20 02:43:56;;;;;;;14.43;11.63;;;;;;;;;;4971157;28;20035;-78
2023/06/20 02:46:26;;;;;;;14.70;11.90;;;;;;;21.82;100.00;-18613.38;4969123;28;20134;-78
2023/06/20 02:49:03;;;;;;;16.33;11.35;;;;;;;22.01;100.00;-18618.28;4984655;28;20047;-79
2023/06/20 02:51:36;;;;;;;14.50;10.90;;;;;;;22.01;100.00;-18618.41;4970894;28;20038;-79
2023/06/20 02:54:25;;;;;;;12.52;11.07;;;;;;;21.96;100.00;-18617.06;5002444;28;20051;-79
2023/06/20 02:56:54;;;;;;;17.23;11.43;;;;;;;21.95;100.00;-18616.66;4967873;28;20042;-79
2023/06/20 02:59:25;;;;;;;15.52;11.85;;;;;;;21.91;100.00;-18615.69;4973941;28;20051;-79
2023/06/20 03:01:57;;;;;;;13.45;11.10;;;;;;;21.91;100.00;-18615.56;4974549;28;20447;-78
2023/06/20 03:04:25;;;;;;;15.52;11.90;;;;;;;21.94;100.00;-18616.50;4972654;28;20074;-78
2023/06/20 03:06:52;;;;;;;13.95;11.57;;;;;;;21.95;100.00;-18616.78;4990218;28;20047;-79
2023/06/20 03:09:19;;;;;;;13.43;10.73;;;;;;;21.98;100.00;-18617.47;4974247;28;20047;-79
2023/06/20 03:11:45;;;;;;;14.63;11.13;;;;;;;22.11;100.00;-18620.84;4968697;28;20039;-79
2023/06/20 03:14:14;;;;;;;15.73;12.02;;;;;;;21.79;100.00;-18612.56;4974740;28;20065;-79
2023/06/20 03:16:42;;;;;;;13.27;10.85;;;;;;;21.79;100.00;-18612.56;4972763;28;20047;-79
2023/06/20 03:19:10;;;;;;;12.37;11.03;;;;;;;21.81;100.00;-18613.13;4972640;28;20086;-78
2023/06/20 03:21:38;;;;;;;13.32;10.73;;;;;;;21.84;100.00;-18613.94;4974429;28;20035;-79
2023/06/20 03:24:04;;;;;;;13.32;11.07;;;;;;;21.74;100.00;-18611.22;4974275;28;20073;-79
2023/06/20 03:26:29;;;;;;;15.48;11.55;;;;;;;21.76;100.00;-18611.63;4970946;28;20039;-79
2023/06/20 03:28:54;;;;;;;13.80;10.90;;;;;;;21.82;100.00;-18613.38;4971045;28;20050;-78
2023/06/20 03:31:20;;;;;;;15.57;11.40;;;;;;;21.80;100.00;-18612.84;4973577;28;20748;-79
2023/06/20 03:33:45;;;;;;;14.45;11.15;;;;;;;21.86;100.00;-18614.47;4974411;28;20043;-78
2023/06/20 03:36:10;;;;;;;13.75;11.35;;;;;;;21.83;100.00;-18613.66;4974089;28;20083;-78
2023/06/20 03:38:36;;;;;;;13.20;9.95;;;;;;;21.81;100.00;-18612.97;4972475;28;20050;-78
2023/06/20 03:41:01;;;;;;;13.30;11.05;;;;;;;21.89;100.00;-18615.16;4972396;28;20046;-78
2023/06/20 03:43:26;;;;;;;15.25;11.60;;;;;;;21.82;100.00;-18613.38;4974155;28;20050;-78
2023/06/20 03:45:52;;;;;;;12.85;10.38;;;;;;;21.78;100.00;-18612.16;4966969;28;20046;-78
2023/06/20 03:48:19;;;;;;;14.70;11.43;;;;;;;21.79;100.00;-18612.56;4970833;28;20050;-79
2023/06/20 03:50:44;;;;;;;13.07;10.63;;;;;;;21.85;100.00;-18614.19;4973402;28;20042;-79
2023/06/20 03:53:09;;;;;;;13.25;10.52;;;;;;;21.78;100.00;-18612.31;4976797;28;20043;-79
2023/06/20 03:55:35;;;;;;;13.15;10.48;;;;;;;21.89;100.00;-18615.00;4980212;28;20053;-78
2023/06/20 03:58:00;;;;;;;13.68;10.60;;;;;;;21.92;100.00;-18615.81;4979164;28;20414;-78
2023/06/20 04:00:26;;;;;;;14.88;10.40;;;;;;;21.95;100.00;-18616.66;4978510;28;20058;-79
2023/06/20 04:02:52;;;;;;;12.18;10.43;;;;;;;21.92;100.00;-18615.81;4977156;28;20507;-78
2023/06/20 04:05:17;;;;;;;12.57;10.18;;;;;;;21.90;100.00;-18615.28;4977582;28;20051;-78
2023/06/20 04:07:42;;;;;;;12.63;10.80;;;;;;;22.04;100.00;-18619.22;4982137;28;20318;-79
2023/06/20 04:10:12;;;;;;;12.35;10.70;;;;;;;22.07;100.00;-18619.91;4983855;28;20055;-79
2023/06/20 04:12:39;;;;;;;12.25;10.40;;;;;;;22.09;100.00;-18620.44;4979773;28;20051;-79
2023/06/20 04:15:05;;;;;;;14.93;11.48;;;;;;;22.02;100.00;-18618.69;4985956;28;20086;-79
2023/06/20 04:17:31;;;;;;;13.68;9.85;;;;;;;22.11;100.00;-18620.84;4976507;28;20045;-79
2023/06/20 04:19:56;;;;;;;11.93;10.30;;;;;;;22.09;100.00;-18620.44;4976047;28;20038;-79
2023/06/20 04:22:26;;;;;;;13.07;10.50;;;;;;;22.10;100.00;-18620.72;4979984;28;20046;-79
2023/06/20 04:24:52;;;;;;;13.15;10.57;;;;;;;22.03;100.00;-18618.81;4981058;28;20042;-79
2023/06/20 04:27:17;;;;;;;12.18;9.60;;;;;;;22.10;100.00;-18620.72;4981504;28;20115;-79
2023/06/20 04:29:43;;;;;;;13.73;9.63;;;;;;;22.12;100.00;-18621.25;4975970;28;20056;-78
2023/06/20 04:32:08;;;;;;;14.57;10.40;;;;;;;21.92;100.00;-18615.97;4981789;28;20042;-78
2023/06/20 04:34:33;;;;;;;13.18;10.02;;;;;;;21.95;100.00;-18616.66;4971400;28;20038;-78
2023/06/20 04:37:01;;;;;;;12.02;9.60;;;;;;;21.95;100.00;-18616.78;4985906;28;20050;-78
2023/06/20 04:39:26;;;;;;;13.80;10.32;;;;;;;21.86;100.00;-18614.47;4972738;28;20062;-78
2023/06/20 04:41:52;;;;;;;13.05;10.32;;;;;;;21.89;100.00;-18615.00;4968237;28;20593;-78
2023/06/20 04:44:17;;;;;;;13.30;10.05;;;;;;;21.92;100.00;-18615.81;4968760;28;20053;-78
2023/06/20 04:46:43;;;;;;;12.75;9.98;;;;;;;21.94;100.00;-18616.50;4964713;28;20119;-78
2023/06/20 04:49:08;;;;;;;13.77;10.10;;;;;;;21.96;100.00;-18616.91;4966271;28;20141;-78
2023/06/20 04:51:33;;;;;;;12.65;10.18;;;;;;;22.02;100.00;-18618.53;4968183;28;20128;-78
2023/06/20 04:53:59;;;;;;;15.15;10.60;;;;;;;22.00;100.00;-18618.00;4964720;28;20047;-78
2023/06/20 04:56:24;;;;;;;12.60;10.35;;;;;;;21.97;100.00;-18617.31;4966744;28;20077;-79
2023/06/20 04:58:50;;;;;;;13.10;10.23;;;;;;;22.05;100.00;-18619.50;4963816;28;20065;-78
2023/06/20 05:01:16;;;;;;;13.43;10.57;;;;;;;22.02;100.00;-18618.53;4969745;28;20109;-78
2023/06/20 05:03:45;;;;;;;12.35;9.88;;;;;;;22.12;100.00;-18621.13;4979087;28;20051;-79
2023/06/20 05:06:16;;;;;;;10.88;8.73;;;;;;;22.19;100.00;-18623.16;4968632;28;20057;-78
2023/06/20 05:08:43;;;;;;;11.70;9.30;;;;;;;22.37;100.00;-18627.91;4960944;28;20051;-78
2023/06/20 05:11:08;;;;;;;14.15;9.55;;;;;;;22.38;100.00;-18628.19;4959364;28;20050;-78
2023/06/20 05:13:34;;;;;;;11.43;9.68;;;;;;;22.44;100.00;-18629.69;4958974;28;20054;-78
2023/06/20 05:15:59;;;;;;;10.98;9.82;;;;;;;22.51;100.00;-18631.59;4960879;28;20049;-77
2023/06/20 05:18:24;;;;;;;10.93;8.93;;;;;;;22.48;100.00;-18630.78;4959844;28;20399;-76
2023/06/20 05:20:52;;;;;;;11.98;9.10;;;;;;;22.44;100.00;-18629.81;4964242;28;20065;-77
2023/06/20 05:23:18;;;;;;;10.55;9.18;;;;;;;22.49;100.00;-18631.03;4963120;28;20042;-76
2023/06/20 05:25:43;;;;;;;12.13;8.88;;;;;;;22.49;100.00;-18631.03;4964484;28;20035;-77
2023/06/20 05:28:08;;;;;;;11.48;8.88;;;;;;;22.53;100.00;-18632.28;4968473;28;20039;-77
2023/06/20 05:30:33;;;;;;;10.10;9.02;;;;;;;22.47;100.00;-18630.63;4961743;28;20046;-76
2023/06/20 05:32:59;;;;;;;10.40;9.18;;;;;;;22.48;100.00;-18630.78;4959844;28;20686;-76
2023/06/20 05:35:24;;;;;;;9.65;8.50;;;;;;;22.67;100.00;-18635.78;4961569;28;20418;-76
2023/06/20 05:37:50;;;;;;;10.68;8.73;;;;;;;22.58;100.00;-18633.50;4962039;28;20039;-77
2023/06/20 05:40:15;;;;;;;12.35;9.38;;;;;;;22.67;100.00;-18635.78;4960485;28;20194;-77
2023/06/20 05:42:41;;;;;;;10.40;9.20;;;;;;;22.58;100.00;-18633.34;4960947;28;20126;-77
2023/06/20 05:45:07;;;;;;;11.98;9.98;;;;;;;22.72;100.00;-18637.28;4961425;28;20385;-77
2023/06/20 05:47:33;;;;;;;15.50;9.05;;;;;;;22.76;100.00;-18638.25;4961779;28;20090;-76
2023/06/20 05:49:59;;;;;;;12.10;9.20;;;;;;;22.84;100.00;-18640.28;4974037;28;20038;-77
2023/06/20 05:52:25;;;;;;;12.23;9.50;;;;;;;22.88;100.00;-18641.38;4960306;28;20043;-77
2023/06/20 05:54:53;;;;;;;10.50;9.18;;;;;;;22.64;100.00;-18634.97;4960701;28;20461;-77
2023/06/20 05:57:19;;;;;;;11.13;9.00;;;;;;;22.63;100.00;-18634.84;4963309;28;20042;-76
2023/06/20 05:59:44;;;;;;;14.60;10.15;;;;;;;22.64;100.00;-18635.13;4960749;28;20094;-77
2023/06/20 06:02:10;;;;;;;12.35;9.25;;;;;;;22.78;100.00;-18638.78;4966429;28;20526;-77
2023/06/20 06:04:35;;;;;;;10.32;8.68;;;;;;;22.77;100.00;-18638.38;4966357;28;20430;-77
2023/06/20 06:07:01;;;;;;;13.38;9.68;;;;;;;22.74;100.00;-18637.84;4968292;28;20051;-77
2023/06/20 06:09:26;;;;;;;10.85;9.05;;;;;;;22.86;100.00;-18640.81;4967310;28;20506;-78
2023/06/20 06:11:52;;;;;;;9.48;8.48;;;;;;;22.83;100.00;-18640.00;4969032;28;20039;-77
2023/06/20 06:14:18;;;;;;;10.68;8.68;;;;;;;22.83;100.00;-18640.13;4970082;28;20051;-77
2023/06/20 06:16:44;;;;;;;11.55;9.70;;;;;;;22.99;100.00;-18644.34;4968516;28;20049;-77
2023/06/20 06:19:10;;;;;;;10.82;9.07;;;;;;;23.00;100.00;-18644.63;4967215;28;20538;-77
2023/06/20 06:21:35;;;;;;;13.40;8.80;;;;;;;23.06;100.00;-18646.13;4967813;28;20051;-77
2023/06/20 06:24:01;;;;;;;11.18;8.68;;;;;;;23.30;100.00;-18652.50;4968271;28;20039;-77
2023/06/20 06:26:26;;;;;;;13.15;9.23;;;;;;;23.22;100.00;-18650.31;4966373;28;20142;-77
2023/06/20 06:28:53;;;;;;;13.18;9.05;;;;;;;23.31;100.00;-18652.75;4968094;28;20042;-76
2023/06/20 06:31:27;;;;;;;10.48;8.65;;;;;;;23.38;100.00;-18654.66;4967216;28;20506;-77
2023/06/20 06:33:54;;;;;;;11.35;8.75;;;;;;;23.36;100.00;-18654.13;4981276;28;20057;-77
2023/06/20 06:36:20;;;;;;;11.40;9.38;;;;;;;23.67;100.00;-18662.38;4968796;28;20108;-77
2023/06/20 06:38:48;;;;;;;11.88;9.00;;;;;;;23.52;100.00;-18658.47;4963299;28;20682;-76
2023/06/20 06:41:16;;;;;;;11.15;10.05;;;;;;;23.61;100.00;-18660.91;4966291;28;20039;-76
2023/06/20 06:43:41;;;;;;;11.65;10.38;;;;;;;23.62;100.00;-18661.03;4968302;28;20055;-77
2023/06/20 06:46:06;;;;;;;13.50;9.82;;;;;;;23.69;100.00;-18662.81;4967975;28;20116;-77
2023/06/20 06:48:32;;;;;;;12.18;10.13;;;;;;;23.92;100.00;-18668.91;4967393;28;20046;-76
2023/06/20 06:50:58;;;;;;;11.73;10.52;;;;;;;24.04;100.00;-18672.28;4966612;28;20089;-77
2023/06/20 06:53:24;;;;;;;11.20;9.88;;;;;;;24.25;100.00;-18677.84;4969232;28;20141;-77
2023/06/20 06:55:50;;;;;;;12.20;9.90;;;;;;;24.48;100.00;-18683.94;4967551;28;20043;-77
2023/06/20 06:58:16;;;;;;;12.13;10.15;;;;;;;24.51;100.00;-18684.75;4967326;28;21149;-77
2023/06/20 07:00:41;;;;;;;14.40;11.40;;;;;;;24.56;100.00;-18685.84;4968605;28;20051;-77
2023/06/20 07:03:08;;;;;;;14.05;11.07;;;;;;;24.33;100.00;-18680.00;4969064;28;20054;-76
2023/06/20 07:05:34;;;;;;;11.82;10.43;;;;;;;24.53;100.00;-18685.31;4971910;28;20081;-77
2023/06/20 07:07:59;;;;;;;12.15;10.88;;;;;;;24.60;100.00;-18686.94;4968186;28;20077;-77
2023/06/20 07:10:24;;;;;;;12.82;10.50;;;;;;;24.53;100.00;-18685.31;4966492;28;20055;-77
2023/06/20 07:12:53;;;;;;;14.10;11.18;;;;;;;24.67;100.00;-18688.81;4966929;28;20042;-76
2023/06/20 07:15:18;;;;;;;13.65;10.95;;;;;;;24.69;100.00;-18689.38;4968523;28;20043;-77
2023/06/20 07:17:43;;;;;;;11.93;10.65;;;;;;;24.83;100.00;-18693.03;4965843;28;20458;-76
2023/06/20 07:20:09;;;;;;;13.23;11.27;;;;;;;24.76;100.00;-18691.25;4968181;28;22146;-77
2023/06/20 07:22:35;;;;;;;13.95;10.63;;;;;;;24.74;100.00;-18690.72;4968494;28;20046;-76
2023/06/20 07:25:01;;;;;;;13.57;11.00;;;;;;;24.64;100.00;-18688.16;4967422;28;20563;-77
2023/06/20 07:27:26;;;;;;;11.30;10.05;;;;;;;24.66;100.00;-18688.56;4968411;28;20090;-77
2023/06/20 07:29:51;;;;;;;12.48;11.15;;;;;;;24.66;100.00;-18688.56;4966658;28;20049;-77
2023/06/20 07:32:18;;;;;;;13.02;11.73;;;;;;;24.81;100.00;-18692.63;4966509;28;20070;-77
2023/06/20 07:34:43;;;;;;;12.50;10.73;;;;;;;24.78;100.00;-18691.81;4966792;28;20047;-77
2023/06/20 07:37:09;;;;;;;12.18;10.63;;;;;;;24.89;100.00;-18694.78;4968563;28;20073;-77
2023/06/20 07:39:38;;;;;;;14.30;11.07;;;;;;;25.03;100.00;-18698.31;4967107;28;20042;-76
2023/06/20 07:42:04;;;;;;;18.98;12.82;;;;;;;25.18;100.00;-18702.50;4966944;28;20069;-77
2023/06/20 07:44:29;;;;;;;11.73;10.40;;;;;;;25.15;100.00;-18701.69;4966073;28;20488;-77
2023/06/20 07:46:54;;;;;;;12.65;11.35;;;;;;;25.08;100.00;-18699.66;4967065;28;20055;-77
2023/06/20 07:49:20;;;;;;;15.02;11.60;;;;;;;25.18;100.00;-18702.38;4966334;28;20121;-76
2023/06/20 07:51:46;;;;;;;13.80;11.35;;;;;;;25.23;100.00;-18703.59;4969163;28;20042;-77
2023/06/20 07:54:11;;;;;;;15.55;11.55;;;;;;;25.09;100.00;-18699.94;4968286;28;20050;-77
2023/06/20 07:56:36;;;;;;;13.50;11.10;;;;;;;25.24;100.00;-18704.00;4966654;28;20070;-77
2023/06/20 07:59:02;;;;;;;13.55;11.23;;;;;;;25.28;100.00;-18704.94;4965212;28;20113;-77
2023/06/20 08:01:27;;;;;;;12.65;11.32;;;;;;;25.30;100.00;-18705.47;4975834;28;20056;-77
2023/06/20 08:03:52;;;;;;;13.02;10.48;;;;;;;25.18;100.00;-18702.50;4966982;28;20130;-77
2023/06/20 08:06:18;;;;;;;13.95;10.75;;;;;;;25.13;100.00;-18701.00;4966356;28;20122;-77
2023/06/20 08:08:43;;;;;;;11.77;9.82;;;;;;;25.42;100.00;-18708.88;4965052;28;20125;-77
2023/06/20 08:11:09;;;;;;;14.38;10.95;;;;;;;25.16;100.00;-18701.81;4965856;28;20051;-77
2023/06/20 08:13:34;;;;;;;12.32;10.30;;;;;;;25.23;100.00;-18703.72;4966324;28;20069;-77
2023/06/20 08:16:00;;;;;;;13.10;11.70;;;;;;;25.44;100.00;-18709.41;4967620;28;20529;-77
2023/06/20 08:18:25;;;;;;;14.73;12.02;;;;;;;25.50;100.00;-18710.75;4970120;28;20522;-77
2023/06/20 08:20:50;;;;;;;13.50;11.95;;;;;;;25.34;100.00;-18706.56;4967362;28;20126;-77
2023/06/20 08:23:24;;;;;;;10.98;9.63;;;;;;;25.55;100.00;-18712.09;4967920;28;20515;-77
2023/06/20 08:25:49;;;;;;;12.65;10.32;;;;;;;25.72;100.00;-18716.56;4966776;28;20502;-77
2023/06/20 08:28:15;;;;;;;10.57;8.30;;;;;;;25.95;100.00;-18722.66;4965777;28;20053;-77
2023/06/20 08:30:41;;;;;;;13.55;10.75;;;;;;;25.99;100.00;-18723.88;4965564;28;20047;-77
2023/06/20 08:33:06;;;;;;;12.48;10.55;;;;;;;25.94;100.00;-18722.53;4966160;28;20125;-77
2023/06/20 08:35:31;;;;;;;13.10;10.90;;;;;;;26.04;100.00;-18725.09;4965392;28;20042;-77
2023/06/20 08:37:57;;;;;;;13.32;9.23;;;;;;;26.19;100.00;-18729.03;4966726;28;20502;-77
2023/06/20 08:40:22;;;;;;;14.00;9.98;;;;;;;26.19;100.00;-18729.03;4965851;28;20686;-77
2023/06/20 08:42:47;;;;;;;13.32;9.65;;;;;;;26.42;100.00;-18735.09;4964616;28;20051;-77
2023/06/20 08:45:15;;;;;;;11.35;9.45;;;;;;;26.52;100.00;-18737.81;4966594;28;20044;-77
2023/06/20 08:47:41;;;;;;;10.10;8.97;;;;;;;26.59;100.00;-18739.72;4964908;28;20047;-77
2023/06/20 08:50:07;;;;;;;13.35;11.48;;;;;;;26.71;100.00;-18742.94;4965772;28;20506;-77
2023/06/20 08:52:42;;;;;;;10.88;9.75;;;;;;;26.69;100.00;-18742.41;4965414;28;20046;-77
2023/06/20 08:55:08;;;;;;;10.38;7.88;;;;;;;27.08;100.00;-18752.69;4965154;28;20050;-77
2023/06/20 08:57:34;;;;;;;11.18;8.80;;;;;;;27.16;100.00;-18754.84;4965971;28;20510;-77
2023/06/20 09:00:00;;;;;;;12.90;9.13;;;;;;;27.16;100.00;-18754.84;4965292;28;20053;-77
2023/06/20 09:02:25;;;;;;;13.15;8.35;;;;;;;27.20;100.00;-18755.91;4965283;28;20498;-77
2023/06/20 09:05:01;;;;;;;8.77;7.55;;;;;;;27.50;100.00;-18763.63;4965479;28;20089;-77
2023/06/20 09:07:34;;;;;;;10.57;8.55;;;;;;;27.62;100.00;-18767.00;4966104;28;20618;-77
2023/06/20 09:10:01;;;;;;;8.38;6.80;;;;;;;27.77;99.86;-18770.78;4961344;28;20128;-78
2023/06/20 09:12:26;;;;;;;10.02;7.90;;;;;;;27.46;98.73;-18762.66;4963397;28;20517;-77
2023/06/20 09:14:52;;;;;;;9.23;6.40;;;;;;;27.54;98.57;-18764.81;4980369;28;20047;-77
2023/06/20 09:17:19;;;;;;;8.23;6.38;;;;;;;27.79;92.99;-18771.44;4967627;28;20465;-77
2023/06/20 09:19:46;;;;;;;8.80;6.15;;;;;;;27.90;92.22;-18774.41;4964279;28;20050;-77
2023/06/20 09:22:14;;;;;;;7.50;6.13;;;;;;;27.83;93.38;-18772.53;4984049;28;20042;-77
2023/06/20 09:24:44;;;;;;;;;;;;;;;28.14;91.29;-18780.63;4969058;28;20043;-77
2023/06/20 09:27:10;;;;;;;12.65;7.20;;;;;;;28.17;90.93;-18781.44;4975910;28;19945;-77
2023/06/20 09:29:49;;;;;;;9.98;7.13;;;;;;;28.15;90.62;-18780.75;4979539;28;20059;-77
2023/06/20 09:32:19;;;;;;;10.00;6.90;;;;;;;28.21;85.62;-18782.50;4982198;28;20049;-77
2023/06/20 09:34:45;;;;;;;8.15;7.10;;;;;;;28.21;86.84;-18782.38;4967363;28;20039;-77
2023/06/20 09:37:11;;;;;;;9.82;6.68;;;;;;;28.26;88.83;-18783.72;4968643;28;20039;-77
2023/06/20 09:39:36;;;;;;;8.88;6.60;;;;;;;28.64;83.54;-18793.69;4970285;28;20100;-77
2023/06/20 09:42:01;;;;;;;8.60;6.85;;;;;;;28.50;81.16;-18790.06;4967864;28;22265;-77
2023/06/20 09:44:28;;;;;;;9.57;7.18;;;;;;;28.66;82.49;-18794.25;4968709;28;20038;-77
2023/06/20 09:46:54;;;;;;;9.55;7.18;;;;;;;28.96;79.23;-18802.31;4968321;28;20502;-77
2023/06/20 09:49:19;;;;;;;9.40;7.55;;;;;;;29.12;75.12;-18806.50;4980025;28;20046;-77
2023/06/20 09:51:48;;;;;;;9.55;6.97;;;;;;;28.90;79.68;-18800.72;4966907;28;20085;-77
2023/06/20 09:54:18;;;;;;;9.82;7.68;;;;;;;28.76;79.37;-18797.06;4970540;28;20038;-77
2023/06/20 09:56:50;;;;;;;9.23;7.43;;;;;;;28.73;80.45;-18796.13;4975897;28;20055;-77
2023/06/20 09:59:16;;;;;;;7.97;7.15;;;;;;;28.87;80.85;-18799.91;4968062;28;20090;-77
2023/06/20 10:01:42;;;;;;;12.65;8.30;;;;;;;29.32;79.91;-18811.75;4968119;28;20043;-77
2023/06/20 10:04:09;;;;;;;9.77;8.35;;;;;;;29.32;77.55;-18811.75;4984300;28;20130;-77
2023/06/20 10:06:37;;;;;;;10.43;8.55;;;;;;;29.26;74.02;-18810.16;4969443;28;20043;-77
2023/06/20 10:09:06;;;;;;;10.40;8.15;;;;;;;29.48;75.20;-18815.94;4967311;28;20039;-77
2023/06/20 10:11:36;;;;;;;10.00;8.45;;;;;;;29.40;73.24;-18813.91;4968137;28;20050;-77
2023/06/20 10:14:03;;;;;;;9.05;7.55;;;;;;;29.25;75.41;-18809.88;4967604;28;20098;-77
2023/06/20 10:16:29;;;;;;;9.95;8.25;;;;;;;29.24;74.31;-18809.75;4968584;28;20049;-77
2023/06/20 10:18:55;;;;;;;10.00;7.40;;;;;;;29.37;75.19;-18812.97;4978646;28;20031;-77
2023/06/20 10:21:59;;;;;;;9.35;7.93;;;;;;;29.56;72.39;-18817.97;4969759;28;20419;-77
2023/06/20 10:24:27;;;;;;;9.77;7.60;;;;;;;29.57;75.64;-18818.34;4960412;28;20074;-77
2023/06/20 10:27:01;;;;;;;8.43;6.90;;;;;;;29.82;67.83;-18824.81;4975710;28;20039;-77
2023/06/20 10:29:27;;;;;;;7.38;6.00;;;;;;;29.76;67.82;-18823.34;4976068;28;20042;-77
2023/06/20 10:32:02;;;;;;;8.32;6.80;;;;;;;29.80;68.53;-18824.28;4968383;28;20038;-77
2023/06/20 10:34:40;;;;;;;8.80;7.38;;;;;;;29.94;68.09;-18827.91;4968293;28;20130;-77
2023/06/20 10:37:20;;;;;;;8.55;6.28;;;;;;;30.00;65.18;-18829.53;4956515;28;20049;-77
2023/06/20 10:39:52;;;;;;;7.60;5.55;;;;;;;30.23;62.52;-18835.72;4960047;28;20161;-78
2023/06/20 10:42:38;;;;;;;7.68;6.22;;;;;;;30.06;65.99;-18831.16;4967421;28;20046;-77
2023/06/20 10:45:16;;;;;;;7.70;5.65;;;;;;;30.03;62.60;-18830.34;4966981;28;20484;-77
2023/06/20 10:47:42;;;;;;;7.40;5.70;;;;;;;30.27;61.68;-18836.81;4969422;28;20042;-77
2023/06/20 10:50:08;;;;;;;6.70;6.00;;;;;;;30.21;60.53;-18835.06;4975018;28;20085;-77
2023/06/20 10:52:35;;;;;;;7.35;5.20;;;;;;;30.37;62.63;-18839.38;4973694;28;20097;-77
2023/06/20 10:55:01;;;;;;;5.90;5.03;;;;;;;30.33;63.70;-18838.28;4968039;28;20651;-78
2023/06/20 10:57:28;;;;;;;7.88;6.22;;;;;;;30.52;64.28;-18843.25;4953444;28;20053;-78
2023/06/20 10:59:53;;;;;;;8.68;6.00;;;;;;;30.53;60.70;-18843.66;4979363;28;20050;-78
2023/06/20 11:02:19;;;;;;;7.85;6.45;;;;;;;30.79;62.17;-18850.53;4975471;28;20089;-78
2023/06/20 11:04:50;;;;;;;9.10;6.43;;;;;;;30.96;59.49;-18854.97;4968941;28;20146;-77
2023/06/20 11:07:15;;;;;;;9.73;6.30;;;;;;;30.98;58.19;-18855.38;4970861;28;20050;-77
2023/06/20 11:09:40;;;;;;;8.07;6.32;;;;;;;30.94;58.44;-18854.28;4976850;28;20747;-77
2023/06/20 11:12:09;;;;;;;6.95;6.25;;;;;;;30.78;60.30;-18850.25;4970594;28;20122;-77